Time;durP1;ratioP1;P1;durP2;ratioP2;P2;SDS_P1;SDS_P2;PMS_P1;PMS_P2;Temp;Humidity;BMP_temperature;BMP_pressure;BME280_temperature;BME280_humidity;BME280_pressure;Samples;Min_cycle;Max_cycle;Signal;HPM_P1;HPM_P2
2022/11/13 00:00:11;;;;;;;1999.90;999.90;;;9.70;99.90;;;;;;5114663;28;20188;-70
2022/11/13 00:02:37;;;;;;;1999.90;999.90;;;9.60;99.90;;;;;;5114695;27;20630;-70
2022/11/13 00:05:02;;;;;;;1999.90;999.90;;;9.60;99.90;;;;;;5114733;28;20426;-70
2022/11/13 00:07:28;;;;;;;1999.90;999.90;;;9.50;99.90;;;;;;5114310;28;20164;-70
2022/11/13 00:09:54;;;;;;;1999.90;999.90;;;9.50;99.90;;;;;;5114291;28;20271;-70
2022/11/13 00:12:19;;;;;;;1999.90;999.90;;;9.40;99.90;;;;;;5114460;28;20188;-70
2022/11/13 00:14:45;;;;;;;1999.90;999.90;;;9.40;99.90;;;;;;5114343;28;20204;-70
2022/11/13 00:17:10;;;;;;;1999.90;999.90;;;9.30;99.90;;;;;;5114170;28;20736;-70
2022/11/13 00:19:36;;;;;;;1999.90;999.90;;;9.30;99.90;;;;;;5114126;28;20193;-70
2022/11/13 00:22:01;;;;;;;1999.90;999.90;;;9.30;99.90;;;;;;5114246;28;20159;-70
2022/11/13 00:24:27;;;;;;;1999.90;999.90;;;9.40;99.90;;;;;;5114264;28;20194;-70
2022/11/13 00:26:53;;;;;;;1999.90;999.90;;;9.40;99.90;;;;;;5113929;28;20177;-70
2022/11/13 00:29:18;;;;;;;1999.90;999.90;;;9.40;99.90;;;;;;5113805;28;20260;-70
2022/11/13 00:31:44;;;;;;;1999.90;999.90;;;9.40;99.90;;;;;;5113984;28;20209;-70
2022/11/13 00:34:09;;;;;;;1999.90;999.90;;;9.40;99.90;;;;;;5113962;28;20197;-70
2022/11/13 00:36:35;;;;;;;1999.90;999.90;;;9.40;99.90;;;;;;5113796;28;20169;-70
2022/11/13 00:39:01;;;;;;;1999.90;999.90;;;9.50;99.90;;;;;;5113707;28;20206;-70
2022/11/13 00:41:26;;;;;;;1999.90;999.90;;;9.50;99.90;;;;;;5113885;28;20165;-70
2022/11/13 00:43:52;;;;;;;1999.90;999.90;;;9.50;99.90;;;;;;5113770;28;20160;-70
2022/11/13 00:46:18;;;;;;;1999.90;999.90;;;9.50;99.90;;;;;;5113570;28;20225;-70
2022/11/13 00:48:43;;;;;;;1999.90;999.90;;;9.50;99.90;;;;;;5113083;28;20206;-70
2022/11/13 00:51:09;;;;;;;1999.90;999.90;;;9.50;99.90;;;;;;5113658;28;20220;-70
2022/11/13 00:53:34;;;;;;;1999.90;999.90;;;9.50;99.90;;;;;;5113503;28;20654;-70
2022/11/13 00:56:00;;;;;;;1999.90;999.90;;;9.50;99.90;;;;;;5113460;28;20171;-70
2022/11/13 00:58:26;;;;;;;1999.90;999.90;;;9.50;99.90;;;;;;5113307;28;20639;-70
2022/11/13 01:00:52;;;;;;;1999.90;999.90;;;9.50;99.90;;;;;;5113510;28;20171;-70
2022/11/13 01:03:18;;;;;;;1999.90;999.90;;;9.50;99.90;;;;;;5113438;28;20463;-70
2022/11/13 01:05:45;;;;;;;1999.90;999.90;;;9.50;99.90;;;;;;5113341;28;20169;-70
2022/11/13 01:08:12;;;;;;;1999.90;999.90;;;9.50;99.90;;;;;;5113064;28;20422;-70
2022/11/13 01:10:47;;;;;;;1999.90;999.90;;;9.50;99.90;;;;;;5113307;28;20399;-70
2022/11/13 01:13:12;;;;;;;1999.90;999.90;;;9.40;99.90;;;;;;5113180;28;20391;-70
2022/11/13 01:15:43;;;;;;;1999.90;999.90;;;9.40;99.90;;;;;;5113029;28;20500;-70
2022/11/13 01:18:09;;;;;;;1999.90;999.90;;;9.40;99.90;;;;;;5112926;28;20215;-70
2022/11/13 01:20:35;;;;;;;1999.90;999.90;;;9.40;99.90;;;;;;5113016;28;20406;-70
2022/11/13 01:23:01;;;;;;;1999.90;999.90;;;9.30;99.90;;;;;;5113027;28;20494;-70
2022/11/13 01:25:27;;;;;;;1999.90;999.90;;;9.30;99.90;;;;;;5113116;28;20497;-70
2022/11/13 01:27:53;;;;;;;1999.90;999.90;;;9.30;99.90;;;;;;5112486;27;20223;-70
2022/11/13 01:30:18;;;;;;;1999.90;999.90;;;9.20;99.90;;;;;;5112934;28;20405;-70
2022/11/13 01:32:44;;;;;;;1999.90;999.90;;;9.10;99.90;;;;;;5113076;28;20169;-70
2022/11/13 01:35:10;;;;;;;1999.90;999.90;;;9.10;99.90;;;;;;5112765;28;20196;-70
2022/11/13 01:37:35;;;;;;;1999.90;999.90;;;9.00;99.90;;;;;;5112507;28;20621;-70
2022/11/13 01:40:01;;;;;;;1999.90;999.90;;;9.00;99.90;;;;;;5112851;28;20525;-70
2022/11/13 01:42:26;;;;;;;1999.90;999.90;;;9.00;99.90;;;;;;5112725;28;20167;-70
2022/11/13 01:44:56;;;;;;;1999.90;999.90;;;9.00;99.90;;;;;;5112703;28;20203;-70
2022/11/13 01:47:23;;;;;;;1999.90;999.90;;;8.90;99.90;;;;;;5112604;28;20523;-70
2022/11/13 01:49:53;;;;;;;1999.90;999.90;;;8.90;99.90;;;;;;5112569;28;20444;-69
2022/11/13 01:52:36;;;;;;;1999.90;999.90;;;8.90;99.90;;;;;;5112714;28;20462;-70
2022/11/13 01:55:11;;;;;;;1999.90;999.90;;;8.90;99.90;;;;;;5112490;28;20878;-70
2022/11/13 01:57:37;;;;;;;1999.90;999.90;;;8.80;99.90;;;;;;5112200;28;20471;-70
2022/11/13 02:00:08;;;;;;;1999.90;999.90;;;8.80;99.90;;;;;;5112675;28;20417;-70
2022/11/13 02:02:34;;;;;;;1999.90;999.90;;;8.80;99.90;;;;;;5113387;28;20412;-70
2022/11/13 02:05:00;;;;;;;1999.90;999.90;;;8.80;99.90;;;;;;5112996;28;20895;-70
2022/11/13 02:07:26;;;;;;;1999.90;999.90;;;8.90;99.90;;;;;;5112790;28;20433;-70
2022/11/13 02:09:55;;;;;;;1999.90;999.90;;;8.90;99.90;;;;;;5113000;28;20445;-70
2022/11/13 02:12:29;;;;;;;1999.90;999.90;;;8.90;99.90;;;;;;5112780;28;20170;-70
2022/11/13 02:14:58;;;;;;;1999.90;999.90;;;8.90;99.90;;;;;;5112812;28;20439;-70
2022/11/13 02:17:31;;;;;;;1999.90;999.90;;;8.90;99.90;;;;;;5112731;28;20418;-70
2022/11/13 02:20:00;;;;;;;1999.90;999.90;;;8.90;99.90;;;;;;5112535;28;20459;-70
2022/11/13 02:22:42;;;;;;;1999.90;999.90;;;8.90;99.90;;;;;;5112722;28;20406;-70
2022/11/13 02:25:10;;;;;;;1999.90;999.90;;;9.00;99.90;;;;;;5112653;28;20914;-70
2022/11/13 02:27:39;;;;;;;1999.90;999.90;;;9.10;99.90;;;;;;5112240;28;20414;-70
2022/11/13 02:30:21;;;;;;;1999.90;999.90;;;9.00;99.90;;;;;;5112846;28;20433;-70
2022/11/13 02:32:49;;;;;;;1999.90;999.90;;;9.00;99.90;;;;;;5112424;28;20417;-70
2022/11/13 02:35:18;;;;;;;1999.90;999.90;;;9.00;99.90;;;;;;5112528;28;20992;-70
2022/11/13 02:37:44;;;;;;;1999.90;999.90;;;8.90;99.90;;;;;;5112797;28;20408;-70
2022/11/13 02:40:11;;;;;;;1999.90;999.90;;;8.90;99.90;;;;;;5112919;28;20485;-70
2022/11/13 02:42:36;;;;;;;1999.90;999.90;;;8.90;99.90;;;;;;5112729;28;20228;-70
2022/11/13 02:45:03;;;;;;;1999.90;999.90;;;8.90;99.90;;;;;;5112788;28;20809;-70
2022/11/13 02:47:28;;;;;;;1999.90;999.90;;;8.90;99.90;;;;;;5112576;28;20200;-70
2022/11/13 02:49:54;;;;;;;1999.90;999.90;;;8.80;99.90;;;;;;5112429;28;20426;-70
2022/11/13 02:52:19;;;;;;;1999.90;999.90;;;8.90;99.90;;;;;;5112648;28;20176;-70
2022/11/13 02:54:45;;;;;;;1999.90;999.90;;;8.80;99.90;;;;;;5112643;28;20200;-70
2022/11/13 02:57:10;;;;;;;1999.90;999.90;;;8.80;99.90;;;;;;5113471;28;20635;-70
2022/11/13 02:59:36;;;;;;;1999.90;999.90;;;8.70;99.90;;;;;;5113890;28;20240;-70
2022/11/13 03:02:02;;;;;;;1999.90;999.90;;;8.80;99.90;;;;;;5113528;28;20170;-70
2022/11/13 03:04:27;;;;;;;1999.90;999.90;;;8.70;99.90;;;;;;5116786;28;20178;-71
2022/11/13 03:06:53;;;;;;;1999.90;999.90;;;8.70;99.90;;;;;;5113817;28;20206;-70
2022/11/13 03:09:18;;;;;;;1999.90;999.90;;;8.70;99.90;;;;;;5114922;28;20551;-70
2022/11/13 03:11:44;;;;;;;1999.90;999.90;;;8.70;99.90;;;;;;5117474;28;20174;-70
2022/11/13 03:14:10;;;;;;;1999.90;999.90;;;8.70;99.90;;;;;;5117165;28;20671;-70
2022/11/13 03:16:35;;;;;;;1999.90;999.90;;;8.70;99.90;;;;;;5115810;28;20246;-70
2022/11/13 03:19:02;;;;;;;1999.90;999.90;;;8.70;99.90;;;;;;5115761;28;20762;-70
2022/11/13 03:21:27;;;;;;;1999.90;999.90;;;8.70;99.90;;;;;;5115888;28;20777;-70
2022/11/13 03:23:54;;;;;;;1999.90;999.90;;;8.70;99.90;;;;;;5115650;28;20483;-70
2022/11/13 03:26:19;;;;;;;1999.90;999.90;;;8.60;99.90;;;;;;5115641;28;20617;-70
2022/11/13 03:28:45;;;;;;;1999.90;999.90;;;8.50;99.90;;;;;;5115237;28;20513;-70
2022/11/13 03:31:11;;;;;;;1999.90;999.90;;;8.50;99.90;;;;;;5116299;27;20175;-70
2022/11/13 03:33:37;;;;;;;1999.90;999.90;;;8.60;99.90;;;;;;5115179;28;20663;-70
2022/11/13 03:36:03;;;;;;;1999.90;999.90;;;8.60;99.90;;;;;;5114996;28;20480;-70
2022/11/13 03:38:28;;;;;;;1999.90;999.90;;;8.50;99.90;;;;;;5114924;28;20279;-70
2022/11/13 03:40:54;;;;;;;1999.90;999.90;;;8.40;99.90;;;;;;5115023;28;20404;-69
2022/11/13 03:43:20;;;;;;;1999.90;999.90;;;8.40;99.90;;;;;;5115070;28;20198;-70
2022/11/13 03:45:46;;;;;;;1999.90;999.90;;;8.30;99.90;;;;;;5115104;28;20172;-70
2022/11/13 03:48:14;;;;;;;1999.90;999.90;;;8.20;99.90;;;;;;5114580;28;20466;-70
2022/11/13 03:50:43;;;;;;;1999.90;999.90;;;8.20;99.90;;;;;;5114932;28;20832;-70
2022/11/13 03:53:09;;;;;;;1999.90;999.90;;;8.20;99.90;;;;;;5114816;28;20429;-70
2022/11/13 03:55:34;;;;;;;1999.90;999.90;;;8.10;99.90;;;;;;5114813;28;20910;-70
2022/11/13 03:58:00;;;;;;;1999.90;999.90;;;8.10;99.90;;;;;;5114411;28;20703;-69
2022/11/13 04:00:25;;;;;;;1999.90;999.90;;;8.10;99.90;;;;;;5114763;28;20173;-70
2022/11/13 04:02:51;;;;;;;1999.90;999.90;;;8.10;99.90;;;;;;5114543;28;20246;-70
2022/11/13 04:05:17;;;;;;;1999.90;999.90;;;8.10;99.90;;;;;;5114658;28;20224;-69
2022/11/13 04:07:42;;;;;;;1999.90;999.90;;;8.10;99.90;;;;;;5114203;28;20182;-70
2022/11/13 04:10:08;;;;;;;1999.90;999.90;;;8.20;99.90;;;;;;5114515;28;20171;-70
2022/11/13 04:12:33;;;;;;;1999.90;999.90;;;8.10;99.90;;;;;;5114380;28;20170;-70
2022/11/13 04:14:59;;;;;;;1999.90;999.90;;;8.10;99.90;;;;;;5114335;28;20206;-69
2022/11/13 04:17:25;;;;;;;1999.90;999.90;;;8.10;99.90;;;;;;5114207;28;20219;-69
2022/11/13 04:19:50;;;;;;;1999.90;999.90;;;8.00;99.90;;;;;;5114129;28;20546;-69
2022/11/13 04:22:16;;;;;;;1999.90;999.90;;;8.00;99.90;;;;;;5113173;28;20532;-69
2022/11/13 04:24:41;;;;;;;1999.90;999.90;;;8.00;99.90;;;;;;5114292;28;20224;-69
2022/11/13 04:27:07;;;;;;;1999.90;999.90;;;7.90;99.90;;;;;;5113958;28;20253;-70
2022/11/13 04:29:32;;;;;;;1999.90;999.90;;;7.90;99.90;;;;;;5113950;28;20772;-70
2022/11/13 04:31:58;;;;;;;1999.90;999.90;;;7.90;99.90;;;;;;5114051;28;20215;-70
2022/11/13 04:34:23;;;;;;;1999.90;999.90;;;7.80;99.90;;;;;;5113924;28;20203;-70
2022/11/13 04:36:49;;;;;;;1999.90;999.90;;;7.70;99.90;;;;;;5113801;28;20695;-70
2022/11/13 04:39:15;;;;;;;1999.90;999.90;;;7.60;99.90;;;;;;5113812;28;20231;-70
2022/11/13 04:44:24;;;;;;;1999.90;999.90;;;7.60;99.90;;;;;;5113881;28;20184;-69
2022/11/13 04:46:50;;;;;;;1999.90;999.90;;;7.50;99.90;;;;;;5113635;28;20820;-69
2022/11/13 04:49:15;;;;;;;1999.90;999.90;;;7.50;99.90;;;;;;5113647;28;20230;-70
2022/11/13 04:51:41;;;;;;;1999.90;999.90;;;7.50;99.90;;;;;;5113664;28;20176;-70
2022/11/13 04:54:06;;;;;;;1999.90;999.90;;;7.50;99.90;;;;;;5113518;28;20200;-69
2022/11/13 04:56:32;;;;;;;1999.90;999.90;;;7.50;99.90;;;;;;5113440;28;20171;-70
2022/11/13 04:58:57;;;;;;;1999.90;999.90;;;7.40;99.90;;;;;;5113237;28;20230;-69
2022/11/13 05:01:23;;;;;;;1999.90;999.90;;;7.40;99.90;;;;;;5113586;28;20167;-70
2022/11/13 05:03:49;;;;;;;1999.90;999.90;;;7.40;99.90;;;;;;5113439;28;20174;-70
2022/11/13 05:06:14;;;;;;;1999.90;999.90;;;7.40;99.90;;;;;;5113288;28;20174;-70
2022/11/13 05:08:40;;;;;;;1999.90;999.90;;;7.40;99.90;;;;;;5113079;28;20190;-70
2022/11/13 05:11:05;;;;;;;1999.90;999.90;;;7.40;99.90;;;;;;5113259;28;20177;-70
2022/11/13 05:13:33;;;;;;;1999.90;999.90;;;7.30;99.90;;;;;;5113153;28;20200;-69
2022/11/13 05:16:09;;;;;;;1999.90;999.90;;;7.40;99.90;;;;;;5112959;28;20174;-69
2022/11/13 05:18:37;;;;;;;1999.90;999.90;;;7.30;99.90;;;;;;5112825;28;20423;-70
2022/11/13 05:21:04;;;;;;;1999.90;999.90;;;7.30;99.90;;;;;;5113048;28;20418;-70
2022/11/13 05:23:30;;;;;;;1999.90;999.90;;;7.30;99.90;;;;;;5112955;28;20407;-70
2022/11/13 05:26:04;;;;;;;1999.90;999.90;;;7.20;99.90;;;;;;5112893;28;20498;-70
2022/11/13 05:28:30;;;;;;;1999.90;999.90;;;7.20;99.90;;;;;;5112645;28;20204;-70
2022/11/13 05:31:20;;;;;;;1999.90;999.90;;;7.10;99.90;;;;;;5112921;28;20919;-70
2022/11/13 05:33:46;;;;;;;1999.90;999.90;;;7.10;99.90;;;;;;5112495;28;20201;-70
2022/11/13 05:36:14;;;;;;;1999.90;999.90;;;7.00;99.90;;;;;;5112774;28;20420;-70
2022/11/13 05:38:40;;;;;;;1999.90;999.90;;;7.00;99.90;;;;;;5112721;28;20242;-70
2022/11/13 05:41:06;;;;;;;1999.90;999.90;;;7.00;99.90;;;;;;5112773;28;20458;-70
2022/11/13 05:43:32;;;;;;;1999.90;999.90;;;6.90;99.90;;;;;;5112701;28;20408;-70
2022/11/13 05:46:05;;;;;;;1999.90;999.90;;;6.90;99.90;;;;;;5112617;28;20179;-70
2022/11/13 05:48:32;;;;;;;1999.90;999.90;;;6.90;99.90;;;;;;5112392;28;20787;-70
2022/11/13 05:51:03;;;;;;;1999.90;999.90;;;6.90;99.90;;;;;;5112628;28;20405;-70
2022/11/13 05:53:29;;;;;;;1999.90;999.90;;;6.80;99.90;;;;;;5112586;28;20475;-70
2022/11/13 05:56:03;;;;;;;1999.90;999.90;;;6.80;99.90;;;;;;5112592;28;20543;-70
2022/11/13 05:58:29;;;;;;;1999.90;999.90;;;6.70;99.90;;;;;;5112183;28;20521;-70
2022/11/13 06:01:16;;;;;;;1999.90;999.90;;;6.70;99.90;;;;;;5112473;28;20860;-70
2022/11/13 06:03:43;;;;;;;1999.90;999.90;;;6.70;99.90;;;;;;5102139;28;20472;-70
2022/11/13 06:06:17;;;;;;;1999.90;999.90;;;6.70;99.90;;;;;;5112377;28;20461;-69
2022/11/13 06:08:44;;;;;;;1999.90;999.90;;;6.70;99.90;;;;;;5112350;28;20433;-70
2022/11/13 06:11:12;;;;;;;1999.90;999.90;;;6.70;99.90;;;;;;5112343;28;20406;-70
2022/11/13 06:13:38;;;;;;;1999.90;999.90;;;6.70;99.90;;;;;;5112505;28;20458;-70
2022/11/13 06:16:12;;;;;;;1999.90;999.90;;;6.50;99.90;;;;;;5112270;28;20423;-69
2022/11/13 06:18:39;;;;;;;1999.90;999.90;;;6.40;99.90;;;;;;5112225;28;20415;-70
2022/11/13 06:21:07;;;;;;;1999.90;999.90;;;6.40;99.90;;;;;;5112345;28;20408;-69
2022/11/13 06:23:35;;;;;;;1999.90;999.90;;;6.40;99.90;;;;;;5112336;28;20452;-70
2022/11/13 06:26:05;;;;;;;1999.90;999.90;;;6.30;99.90;;;;;;5112073;28;20407;-70
2022/11/13 06:28:31;;;;;;;1999.90;999.90;;;6.20;99.90;;;;;;5111823;28;20444;-70
2022/11/13 06:31:02;;;;;;;1999.90;999.90;;;6.00;99.90;;;;;;5112189;28;20416;-69
2022/11/13 06:33:28;;;;;;;1999.90;999.90;;;5.90;99.90;;;;;;5112640;28;20474;-70
2022/11/13 06:35:54;;;;;;;1999.90;999.90;;;6.00;99.90;;;;;;5112606;28;20442;-69
2022/11/13 06:38:19;;;;;;;1999.90;999.90;;;5.90;99.90;;;;;;5112312;28;20588;-69
2022/11/13 06:40:45;;;;;;;1999.90;999.90;;;5.90;99.90;;;;;;5112553;28;20172;-69
2022/11/13 06:43:11;;;;;;;1999.90;999.90;;;5.90;99.90;;;;;;5112468;28;20170;-69
2022/11/13 06:45:36;;;;;;;1999.90;999.90;;;5.90;99.90;;;;;;5113850;28;20565;-69
2022/11/13 06:48:02;;;;;;;1999.90;999.90;;;6.00;99.90;;;;;;5116117;28;20514;-69
2022/11/13 06:50:27;;;;;;;1999.90;999.90;;;6.10;99.90;;;;;;5116326;28;20173;-69
2022/11/13 06:52:53;;;;;;;1999.90;999.90;;;6.10;99.90;;;;;;5115988;28;20169;-70
2022/11/13 06:55:19;;;;;;;1999.90;999.90;;;6.10;99.90;;;;;;5115908;28;20197;-70
2022/11/13 06:57:44;;;;;;;1999.90;999.90;;;6.20;99.90;;;;;;5115508;27;20407;-70
2022/11/13 07:00:11;;;;;;;1999.90;999.90;;;6.20;99.90;;;;;;5115916;27;20741;-70
2022/11/13 07:02:36;;;;;;;1999.90;999.90;;;6.20;99.90;;;;;;5115863;28;20170;-70
2022/11/13 07:05:02;;;;;;;1999.90;999.90;;;6.20;99.90;;;;;;5115753;28;20420;-70
2022/11/13 07:07:28;;;;;;;1999.90;999.90;;;6.20;99.90;;;;;;5115576;28;20542;-70
2022/11/13 07:09:53;;;;;;;1999.90;999.90;;;6.20;99.90;;;;;;5115439;28;20435;-70
2022/11/13 07:12:19;;;;;;;1999.90;999.90;;;6.20;99.90;;;;;;5115601;28;20180;-70
2022/11/13 07:14:44;;;;;;;1999.90;999.90;;;6.10;99.90;;;;;;5115569;28;20674;-70
2022/11/13 07:17:10;;;;;;;1999.90;999.90;;;6.10;99.90;;;;;;5136896;27;20539;-70
2022/11/13 07:19:35;;;;;;;1999.90;999.90;;;6.00;99.90;;;;;;5156609;27;20552;-70
2022/11/13 07:22:01;;;;;;;1999.90;999.90;;;6.00;99.90;;;;;;5156662;27;20237;-70
2022/11/13 07:24:26;;;;;;;1999.90;999.90;;;6.00;99.90;;;;;;5156753;27;20168;-70
2022/11/13 07:26:52;;;;;;;1999.90;999.90;;;6.10;99.90;;;;;;5156365;27;20176;-70
2022/11/13 07:29:18;;;;;;;1999.90;999.90;;;6.10;99.90;;;;;;5156346;27;20210;-70
2022/11/13 07:31:43;;;;;;;1999.90;999.90;;;6.20;99.90;;;;;;5156598;27;20538;-70
2022/11/13 07:34:09;;;;;;;1999.90;999.90;;;6.20;99.90;;;;;;5156717;27;20202;-70
2022/11/13 07:36:34;;;;;;;1999.90;999.90;;;6.30;99.90;;;;;;5157866;27;20169;-70
2022/11/13 07:39:00;;;;;;;1999.90;999.90;;;6.40;99.90;;;;;;5156988;27;20240;-70
2022/11/13 07:41:25;;;;;;;1999.90;999.90;;;6.50;99.90;;;;;;5156335;27;20165;-70
2022/11/13 07:43:51;;;;;;;1999.90;999.90;;;6.60;99.90;;;;;;5156487;27;20173;-70
2022/11/13 07:46:16;;;;;;;1999.90;999.90;;;6.60;99.90;;;;;;5156233;27;20717;-70
2022/11/13 07:48:42;;;;;;;1999.90;999.90;;;6.80;99.90;;;;;;5155941;27;20257;-70
2022/11/13 07:51:07;;;;;;;1999.90;999.90;;;6.80;99.90;;;;;;5156239;27;20220;-70
2022/11/13 07:53:34;;;;;;;1999.90;999.90;;;6.90;99.90;;;;;;5156014;27;20199;-70
2022/11/13 07:56:01;;;;;;;1999.90;999.90;;;6.90;99.90;;;;;;5155863;27;20172;-70
2022/11/13 07:58:27;;;;;;;1999.90;999.90;;;7.00;99.90;;;;;;5155768;27;20789;-70
2022/11/13 08:00:53;;;;;;;1999.90;999.90;;;7.10;99.90;;;;;;5156021;27;20452;-70
2022/11/13 08:03:19;;;;;;;1999.90;999.90;;;7.10;99.90;;;;;;5155851;27;21142;-70
2022/11/13 08:05:44;;;;;;;1999.90;999.90;;;7.30;99.90;;;;;;5155840;27;20223;-70
2022/11/13 08:08:13;;;;;;;1999.90;999.90;;;7.30;99.90;;;;;;5155408;27;20240;-70
2022/11/13 08:10:39;;;;;;;1999.90;999.90;;;7.40;99.90;;;;;;5155730;27;20164;-70
2022/11/13 08:13:07;;;;;;;1999.90;999.90;;;7.50;99.90;;;;;;5155821;27;20494;-70
2022/11/13 08:15:33;;;;;;;1999.90;999.90;;;7.50;99.90;;;;;;5155730;27;20448;-70
2022/11/13 08:18:01;;;;;;;1999.90;999.90;;;7.60;99.90;;;;;;5155332;27;20920;-70
2022/11/13 08:20:28;;;;;;;1999.90;999.90;;;7.70;99.90;;;;;;5155515;27;20453;-70
2022/11/13 08:22:58;;;;;;;1999.90;999.90;;;7.80;99.90;;;;;;5155612;27;20947;-70
2022/11/13 08:25:24;;;;;;;1999.90;999.90;;;7.80;99.90;;;;;;5155404;27;20418;-70
2022/11/13 08:27:52;;;;;;;1999.90;999.90;;;7.90;99.90;;;;;;5155003;27;20422;-70
2022/11/13 08:30:18;;;;;;;1999.90;999.90;;;7.90;99.90;;;;;;5155467;27;20180;-70
2022/11/13 08:32:43;;;;;;;1999.90;999.90;;;8.00;99.90;;;;;;5155283;27;20417;-70
2022/11/13 08:35:09;;;;;;;1999.90;999.90;;;8.20;99.90;;;;;;5155142;27;20443;-70
2022/11/13 08:37:35;;;;;;;1999.90;999.90;;;8.20;99.90;;;;;;5154861;27;20176;-70
2022/11/13 08:40:00;;;;;;;1999.90;999.90;;;8.30;99.90;;;;;;5155150;27;20400;-70
2022/11/13 08:42:26;;;;;;;1999.90;999.90;;;8.30;99.90;;;;;;5155141;27;20161;-70
2022/11/13 08:44:52;;;;;;;1999.90;999.90;;;8.30;99.90;;;;;;5155072;27;20172;-70
2022/11/13 08:47:17;;;;;;;1999.90;999.90;;;8.50;99.90;;;;;;5154835;27;20204;-70
2022/11/13 08:49:43;;;;;;;1999.90;999.90;;;8.50;99.90;;;;;;5155103;27;20219;-70
2022/11/13 08:52:09;;;;;;;1999.90;999.90;;;8.60;99.90;;;;;;5154890;27;20181;-70
2022/11/13 08:54:34;;;;;;;1999.90;999.90;;;8.70;99.90;;;;;;5154752;27;20285;-70
2022/11/13 08:57:00;;;;;;;1999.90;999.90;;;8.80;99.90;;;;;;5154641;27;20171;-70
2022/11/13 08:59:26;;;;;;;1999.90;999.90;;;8.90;99.90;;;;;;5154740;27;20214;-70
2022/11/13 09:01:57;;;;;;;1999.90;999.90;;;9.10;99.90;;;;;;5154723;27;20175;-70
2022/11/13 09:04:24;;;;;;;1999.90;999.90;;;9.20;99.90;;;;;;5154533;27;20409;-70
2022/11/13 09:06:50;;;;;;;1999.90;999.90;;;9.30;99.90;;;;;;5154592;27;20422;-70
2022/11/13 09:09:15;;;;;;;1999.90;999.90;;;9.40;99.90;;;;;;5153855;27;20799;-70
2022/11/13 09:11:41;;;;;;;1999.90;999.90;;;9.50;99.90;;;;;;5154491;27;20494;-70
2022/11/13 09:14:07;;;;;;;1999.90;999.90;;;9.60;99.90;;;;;;5154408;27;20542;-70
2022/11/13 09:16:32;;;;;;;1999.90;999.90;;;9.70;99.90;;;;;;5154447;27;20172;-70
2022/11/13 09:18:58;;;;;;;1999.90;999.90;;;9.80;99.90;;;;;;5154131;27;20191;-70
2022/11/13 09:21:24;;;;;;;1999.90;999.90;;;9.90;99.90;;;;;;5154389;27;20164;-70
2022/11/13 09:23:49;;;;;;;1999.90;999.90;;;10.00;99.90;;;;;;5154344;27;20235;-70
2022/11/13 09:26:16;;;;;;;1999.90;999.90;;;10.20;99.90;;;;;;5154202;27;20221;-70
2022/11/13 09:28:41;;;;;;;1999.90;999.90;;;10.20;99.90;;;;;;5154118;27;20695;-70
2022/11/13 09:31:07;;;;;;;1999.90;999.90;;;10.40;99.90;;;;;;5154222;27;20421;-70
2022/11/13 09:33:33;;;;;;;1999.90;999.90;;;10.50;99.90;;;;;;5154552;27;20233;-70
2022/11/13 09:35:59;;;;;;;1999.90;999.90;;;10.70;99.90;;;;;;5154049;27;20160;-70
2022/11/13 09:38:25;;;;;;;1999.90;999.90;;;10.70;99.90;;;;;;5153687;27;20512;-70
2022/11/13 09:40:58;;;;;;;1999.90;999.90;;;10.90;99.90;;;;;;5154153;27;20175;-70
2022/11/13 09:43:45;;;;;;;1999.90;999.90;;;11.00;99.90;;;;;;5150323;27;20169;-70
2022/11/13 09:46:29;;;;;;;1999.90;999.90;;;11.20;99.90;;;;;;5153839;27;20394;-71
2022/11/13 09:49:18;;;;;;;1999.90;999.90;;;11.40;99.90;;;;;;5153442;27;20801;-70
2022/11/13 09:52:01;;;;;;;1999.90;999.90;;;11.50;99.90;;;;;;5153027;27;20417;-70
2022/11/13 09:54:27;;;;;;;1999.90;999.90;;;11.80;99.90;;;;;;5153602;27;20449;-70
2022/11/13 09:56:58;;;;;;;1999.90;999.90;;;11.90;99.90;;;;;;5134691;27;20406;-70
2022/11/13 09:59:42;;;;;;;1999.90;999.90;;;12.10;99.90;;;;;;5824468;22;20435;-69
2022/11/13 10:02:17;;;;;;;1999.90;999.90;;;12.30;99.90;;;;;;5071953;28;20525;-70
2022/11/13 10:05:04;;;;;;;1999.90;999.90;;;12.40;99.90;;;;;;5071449;28;20440;-70
2022/11/13 10:15:13;;;;;;;1999.90;999.90;;;13.10;99.90;;;;;;4802618;22;20478;-70
2022/11/13 10:17:47;;;;;;;1999.90;999.90;;;13.20;99.90;;;;;;5091453;28;20467;-70
2022/11/13 10:20:33;;;;;;;1999.90;999.90;;;13.30;99.90;;;;;;5091887;28;20514;-70
2022/11/13 10:23:18;;;;;;;1999.90;999.90;;;13.40;99.90;;;;;;5052176;28;20444;-67
2022/11/13 10:25:44;;;;;;;1999.90;999.90;;;13.50;99.90;;;;;;5095292;28;20742;-68
2022/11/13 10:28:17;;;;;;;1999.90;999.90;;;13.60;99.90;;;;;;5094720;28;20433;-68
2022/11/13 10:30:44;;;;;;;1999.90;999.90;;;13.70;99.90;;;;;;5094764;28;20749;-67
2022/11/13 10:33:18;;;;;;;1999.90;999.90;;;13.80;99.90;;;;;;5094969;28;20430;-68
2022/11/13 10:35:54;;;;;;;1999.90;999.90;;;14.00;99.90;;;;;;5095344;28;20407;-68
2022/11/13 10:38:26;;;;;;;1999.90;999.90;;;14.10;99.90;;;;;;5095605;28;20418;-69
2022/11/13 10:41:04;;;;;;;1999.90;999.90;;;14.20;99.90;;;;;;5094682;28;20417;-69
2022/11/13 10:43:29;;;;;;;1999.90;999.90;;;14.40;99.90;;;;;;5096503;28;20501;-69
2022/11/13 10:45:57;;;;;;;1999.90;999.90;;;14.50;99.90;;;;;;5094576;28;20491;-70
2022/11/13 10:48:35;;;;;;;1999.90;999.90;;;14.70;99.90;;;;;;5096055;28;20193;-69
2022/11/13 10:51:19;;;;;;;1999.90;999.90;;;14.80;99.90;;;;;;5096113;28;20490;-68
2022/11/13 10:53:46;;;;;;;1999.90;999.90;;;14.90;99.90;;;;;;5096026;28;20437;-69
2022/11/13 10:56:35;;;;;;;1999.90;999.90;;;15.10;99.90;;;;;;5096820;28;20411;-70
2022/11/13 10:59:14;;;;;;;1999.90;999.90;;;15.20;99.90;;;;;;5096076;28;20424;-68
2022/11/13 11:01:41;;;;;;;1999.90;999.90;;;15.20;99.90;;;;;;5095485;28;20443;-69
2022/11/13 11:04:29;;;;;;;1999.90;999.90;;;15.30;99.90;;;;;;5095609;28;20417;-69
2022/11/13 11:06:54;;;;;;;1999.90;999.90;;;15.40;99.90;;;;;;5095116;28;20396;-69
2022/11/13 11:09:29;;;;;;;1999.90;999.90;;;15.60;99.90;;;;;;5095171;28;20442;-69
2022/11/13 11:12:19;;;;;;;1999.90;999.90;;;15.70;99.90;;;;;;5095521;28;20768;-69
2022/11/13 11:14:59;;;;;;;1999.90;999.90;;;15.90;99.90;;;;;;5095061;28;20512;-69
2022/11/13 11:17:40;;;;;;;1999.90;999.90;;;16.10;99.90;;;;;;5094849;28;20395;-69
2022/11/13 11:20:08;;;;;;;1999.90;999.90;;;16.50;99.90;;;;;;5095331;28;20407;-69
2022/11/13 11:22:38;;;;;;;1999.90;999.90;;;17.20;99.90;;;;;;5095250;28;20424;-69
2022/11/13 11:25:19;;;;;;;1999.90;999.90;;;18.00;94.60;;;;;;5095105;28;20444;-70
2022/11/13 11:27:54;;;;;;;1999.90;999.90;;;19.00;90.10;;;;;;5094750;28;20880;-69
2022/11/13 11:30:25;;;;;;;1999.90;999.90;;;20.00;76.80;;;;;;5095232;28;20403;-69
2022/11/13 11:33:29;;;;;;;1999.90;999.90;;;20.70;48.10;;;;;;5094676;28;20408;-69
2022/11/13 11:36:19;;;;;;;1999.90;999.90;;;21.30;39.80;;;;;;5094903;28;20402;-70
2022/11/13 11:38:53;;;;;;;1999.90;999.90;;;21.80;36.40;;;;;;5094840;28;20506;-70
2022/11/13 11:41:24;;;;;;;1999.90;999.90;;;22.50;30.80;;;;;;5094987;28;20402;-70
2022/11/13 11:44:03;;;;;;;1999.90;999.90;;;23.10;28.70;;;;;;5094678;28;20443;-69
2022/11/13 11:46:29;;;;;;;1999.90;999.90;;;23.60;26.50;;;;;;5094522;28;20768;-70
2022/11/13 11:49:00;;;;;;;1999.90;999.90;;;24.30;21.50;;;;;;5094275;28;20402;-70
2022/11/13 11:51:32;;;;;;;1999.90;999.90;;;24.70;18.60;;;;;;5094379;28;20405;-70
2022/11/13 11:54:22;;;;;;;1999.90;999.90;;;25.00;16.40;;;;;;5094340;28;20787;-70
2022/11/13 11:56:51;;;;;;;1999.90;999.90;;;25.30;16.30;;;;;;5094162;28;20806;-70
2022/11/13 11:59:52;;;;;;;1999.90;999.90;;;25.40;14.60;;;;;;5094114;28;20843;-70
2022/11/13 12:02:46;;;;;;;1999.90;999.90;;;25.50;13.60;;;;;;5094479;28;20875;-70
2022/11/13 12:05:17;;;;;;;1999.90;999.90;;;25.80;12.50;;;;;;5094312;28;20786;-70
2022/11/13 12:07:45;;;;;;;1999.90;999.90;;;26.00;11.10;;;;;;5093705;28;20404;-70
2022/11/13 12:10:35;;;;;;;1999.90;999.90;;;26.20;10.60;;;;;;5094285;28;20383;-70
2022/11/13 12:13:36;;;;;;;1999.90;999.90;;;26.80;10.50;;;;;;5094058;28;20374;-70
2022/11/13 12:16:41;;;;;;;1999.90;999.90;;;27.20;7.80;;;;;;5011714;28;20452;-70
2022/11/13 12:19:24;;;;;;;1999.90;999.90;;;27.20;7.90;;;;;;5062353;28;20515;-70
2022/11/13 12:22:24;;;;;;;1999.90;999.90;;;27.20;7.30;;;;;;5093878;28;20431;-70
2022/11/13 12:25:02;;;;;;;1999.90;999.90;;;27.30;6.50;;;;;;5094502;28;20384;-70